Time;durP1;ratioP1;P1;durP2;ratioP2;P2;SDS_P1;SDS_P2;PMS_P1;PMS_P2;Temp;Humidity;BMP_temperature;BMP_pressure;BME280_temperature;BME280_humidity;BME280_pressure;Samples;Min_cycle;Max_cycle;Signal;HPM_P1;HPM_P2
2021/03/22 00:00:00;;;;;;;18.55;6.03;;;;;;;5.51;59.51;71172.81;4974504;28;20026;-85
2021/03/22 00:02:27;;;;;;;19.13;5.75;;;;;;;5.34;58.43;71142.31;4974350;28;20036;-84
2021/03/22 00:04:54;;;;;;;27.00;6.78;;;;;;;5.70;59.10;71183.28;4973919;28;20062;-84
2021/03/22 00:07:20;;;;;;;21.65;6.93;;;;;;;4.76;57.39;71071.06;4974054;28;20109;-86
2021/03/22 00:09:47;;;;;;;23.27;7.47;;;;;;;4.70;59.69;71068.78;4975236;28;20034;-85
2021/03/22 00:12:14;;;;;;;16.88;6.22;;;;;;;5.73;59.24;71186.81;4974252;28;20031;-85
2021/03/22 00:14:41;;;;;;;20.63;7.60;;;;;;;5.88;59.46;71204.63;4973984;28;20478;-86
2021/03/22 00:17:08;;;;;;;22.85;8.18;;;;;;;5.97;59.77;71214.13;4973622;28;20034;-85
2021/03/22 00:19:35;;;;;;;23.58;8.05;;;;;;;5.84;61.90;71199.28;4974000;28;20030;-85
2021/03/22 00:22:02;;;;;;;22.88;8.60;;;;;;;4.97;62.27;71100.22;4973955;28;20027;-87
2021/03/22 00:24:29;;;;;;;18.02;9.40;;;;;;;5.29;63.05;71136.41;4973831;28;20054;-85
2021/03/22 00:26:55;;;;;;;44.33;12.40;;;;;;;5.13;62.46;71118.00;4991573;28;20022;-86
2021/03/22 00:29:24;;;;;;;29.50;11.68;;;;;;;4.87;63.97;71088.38;4991560;28;20022;-86
2021/03/22 00:31:50;;;;;;;30.35;12.45;;;;;;;4.87;65.28;71088.38;4970620;28;20047;-86
2021/03/22 00:34:17;;;;;;;25.60;9.70;;;;;;;4.28;67.35;71021.34;4990826;28;20035;-87
2021/03/22 00:36:44;;;;;;;24.90;11.68;;;;;;;5.29;67.64;71137.00;4975413;28;20495;-85
2021/03/22 00:39:11;;;;;;;21.25;11.48;;;;;;;4.99;67.65;71102.00;4977635;28;20474;-85
2021/03/22 00:41:38;;;;;;;26.48;12.88;;;;;;;5.58;68.84;71169.59;4977844;28;20026;-85
2021/03/22 00:44:05;;;;;;;23.88;10.80;;;;;;;5.52;68.30;71160.38;4979123;28;20033;-85
2021/03/22 00:46:32;;;;;;;22.42;10.50;;;;;;;4.65;69.42;71064.03;4992874;28;20062;-84
2021/03/22 00:48:59;;;;;;;33.00;10.50;;;;;;;5.17;68.67;71122.75;4988562;28;20034;-85
2021/03/22 00:51:26;;;;;;;26.65;11.60;;;;;;;5.67;67.06;71180.31;4970073;28;20318;-85
2021/03/22 00:53:52;;;;;;;27.30;12.77;;;;;;;5.05;68.86;71109.72;4971558;28;20027;-86
2021/03/22 00:56:19;;;;;;;26.15;11.07;;;;;;;4.83;69.53;71083.63;4989336;28;20025;-84
2021/03/22 00:58:46;;;;;;;32.80;11.75;;;;;;;4.58;70.12;71049.72;4970114;28;20031;-85
2021/03/22 01:01:13;;;;;;;27.88;12.70;;;;;;;4.90;69.80;71094.63;4960252;28;20054;-86
2021/03/22 01:03:40;;;;;;;28.70;11.57;;;;;;;4.88;69.72;71089.56;4958319;28;20487;-85
2021/03/22 01:06:09;;;;;;;36.05;13.77;;;;;;;5.41;69.71;71144.59;4958123;28;20117;-87
2021/03/22 01:08:38;;;;;;;25.45;11.40;;;;;;;5.53;68.30;71158.81;4958013;28;20031;-85
2021/03/22 01:11:11;;;;;;;31.30;12.82;;;;;;;5.03;68.38;71104.00;4975022;28;20122;-85
2021/03/22 01:13:54;;;;;;;28.58;12.35;;;;;;;5.78;68.65;71190.03;4974945;28;20034;-86
2021/03/22 01:16:23;;;;;;;25.80;11.32;;;;;;;6.07;67.29;71223.28;4957720;28;20038;-87
2021/03/22 01:18:53;;;;;;;29.98;11.85;;;;;;;6.10;67.71;71226.25;4957983;28;20488;-85
2021/03/22 01:21:19;;;;;;;23.73;11.70;;;;;;;6.11;66.87;71230.78;4957480;28;20037;-86
2021/03/22 01:23:46;;;;;;;29.80;13.30;;;;;;;5.00;67.30;71100.47;4957342;28;20479;-85
2021/03/22 01:26:19;;;;;;;25.45;12.18;;;;;;;5.79;67.72;71193.34;4975166;28;20459;-86
2021/03/22 01:28:46;;;;;;;30.33;11.40;;;;;;;5.29;66.81;71137.00;4957310;28;20399;-84
2021/03/22 01:31:13;;;;;;;26.98;11.90;;;;;;;4.26;67.32;71015.69;4957933;28;20062;-87
2021/03/22 01:33:41;;;;;;;22.67;11.95;;;;;;;5.61;66.70;71173.75;4958483;28;20042;-86
2021/03/22 01:36:16;;;;;;;36.45;14.02;;;;;;;5.57;66.83;71169.03;4962614;28;20055;-87
2021/03/22 01:38:44;;;;;;;29.08;11.88;;;;;;;5.15;65.98;71120.97;4959251;28;20031;-84
2021/03/22 01:41:32;;;;;;;23.60;12.25;;;;;;;5.84;65.51;71197.16;4974638;28;20085;-87
2021/03/22 01:44:08;;;;;;;32.13;12.68;;;;;;;5.72;65.67;71182.91;4957518;28;20493;-86
2021/03/22 01:46:37;;;;;;;26.85;12.07;;;;;;;4.67;64.97;71065.81;4973998;28;20440;-86
2021/03/22 01:49:06;;;;;;;20.02;11.27;;;;;;;5.69;65.02;71182.69;4976852;28;20030;-86
2021/03/22 01:51:36;;;;;;;26.45;10.30;;;;;;;5.24;63.36;71128.34;4977598;28;20041;-84
2021/03/22 01:54:04;;;;;;;20.10;10.98;;;;;;;6.24;63.09;71245.03;4979027;28;20117;-85
2021/03/22 01:56:52;;;;;;;27.15;11.38;;;;;;;4.94;62.83;71096.66;4976476;28;20037;-85
2021/03/22 01:59:31;;;;;;;20.20;12.60;;;;;;;5.88;62.94;71207.34;4975943;28;20066;-85
2021/03/22 02:02:03;;;;;;;26.67;12.18;;;;;;;5.42;63.12;71149.09;4976099;28;20046;-86
2021/03/22 02:04:31;;;;;;;38.05;13.32;;;;;;;5.22;62.43;71131.41;4976299;28;20121;-87
2021/03/22 02:07:00;;;;;;;25.02;12.07;;;;;;;5.08;61.39;71112.69;4975974;28;20029;-88
2021/03/22 02:09:27;;;;;;;19.08;9.60;;;;;;;5.50;62.39;71160.72;4977580;28;20132;-88
2021/03/22 02:11:54;;;;;;;20.73;11.73;;;;;;;5.59;61.71;71171.41;4996948;28;20034;-84
2021/03/22 02:14:22;;;;;;;24.08;11.45;;;;;;;5.43;62.24;71147.56;4991293;28;20390;-85
2021/03/22 02:17:12;;;;;;;33.88;12.18;;;;;;;5.84;61.40;71199.88;4956460;28;20082;-85
2021/03/22 02:20:06;;;;;;;27.25;12.80;;;;;;;5.76;60.64;71190.38;4956826;28;20026;-87
2021/03/22 02:22:45;;;;;;;22.85;11.85;;;;;;;6.24;60.00;71245.03;4957894;28;20035;-87
2021/03/22 02:25:33;;;;;;;19.52;12.57;;;;;;;6.20;59.52;71240.88;4940804;29;20032;-86
2021/03/22 02:28:44;;;;;;;23.92;12.60;;;;;;;6.23;59.87;71243.84;4955056;29;20082;-85
2021/03/22 02:31:29;;;;;;;21.48;12.25;;;;;;;6.07;59.24;71226.00;4937602;29;20043;-85
2021/03/22 02:34:10;;;;;;;24.05;11.88;;;;;;;6.15;58.85;71234.94;4969804;28;20071;-85
2021/03/22 02:36:48;;;;;;;;;;;;;;;6.10;57.81;71226.84;4955424;29;20063;-86
2021/03/22 02:39:16;;;;;;;23.23;12.43;;;;;;;5.86;57.91;71202.25;4937881;29;20422;-84
2021/03/22 02:41:55;;;;;;;27.15;10.93;;;;;;;5.22;59.04;71125.97;4954997;29;20031;-86
2021/03/22 02:44:30;;;;;;;31.45;12.32;;;;;;;4.41;57.70;71036.19;4939262;28;20054;-86
2021/03/22 02:47:00;;;;;;;22.33;11.32;;;;;;;6.08;57.10;71223.88;4992844;28;20109;-85
2021/03/22 02:49:31;;;;;;;16.33;11.13;;;;;;;5.69;58.05;71179.34;4993949;28;20030;-85
2021/03/22 02:52:18;;;;;;;18.88;9.80;;;;;;;6.55;56.99;71281.22;4975752;28;20495;-86
2021/03/22 02:55:07;;;;;;;28.02;11.40;;;;;;;6.98;56.25;71327.81;4976309;28;20407;-85
2021/03/22 02:57:52;;;;;;;24.25;12.07;;;;;;;6.68;57.05;71292.75;4976170;28;20027;-86
2021/03/22 03:00:43;;;;;;;21.67;12.40;;;;;;;6.11;55.15;71227.44;4974553;28;20042;-84
2021/03/22 03:03:19;;;;;;;22.70;10.30;;;;;;;5.50;55.90;71160.13;4947187;28;20124;-85
2021/03/22 03:05:52;;;;;;;19.30;11.98;;;;;;;5.40;56.12;71146.72;4974974;28;20034;-86
2021/03/22 03:08:23;;;;;;;22.65;11.65;;;;;;;5.66;57.86;71178.53;4974832;28;20108;-84
2021/03/22 03:10:50;;;;;;;18.27;11.02;;;;;;;5.20;56.04;71126.91;4974671;28;20062;-85
2021/03/22 03:13:17;;;;;;;16.35;11.10;;;;;;;5.46;57.94;71155.97;4974898;28;20022;-86
2021/03/22 03:15:44;;;;;;;19.00;12.07;;;;;;;6.36;57.19;71259.25;4974104;28;20693;-84
2021/03/22 03:18:11;;;;;;;26.05;11.90;;;;;;;5.46;56.56;71156.56;4991100;28;20033;-87
2021/03/22 03:20:37;;;;;;;22.88;12.10;;;;;;;6.02;56.39;71220.66;4974856;28;20026;-84
2021/03/22 03:23:05;;;;;;;24.50;11.48;;;;;;;5.79;55.91;71193.97;4990974;28;20015;-86
2021/03/22 03:25:32;;;;;;;26.90;11.52;;;;;;;5.80;54.76;71194.53;4974623;28;20034;-85
2021/03/22 03:27:59;;;;;;;21.92;12.43;;;;;;;6.62;54.74;71286.22;4990734;28;20018;-86
2021/03/22 03:30:33;;;;;;;18.92;10.48;;;;;;;6.06;54.11;71221.50;4974945;28;20031;-85
2021/03/22 03:33:00;;;;;;;24.42;11.68;;;;;;;6.13;53.04;71233.13;4992365;28;20414;-84
2021/03/22 03:35:30;;;;;;;20.52;11.10;;;;;;;5.26;52.21;71133.44;4992908;28;20092;-84
2021/03/22 03:37:57;;;;;;;;;;;;;;;6.65;52.85;71289.78;4975111;28;20058;-85
2021/03/22 03:40:31;;;;;;;18.52;10.35;;;;;;;6.42;54.53;71265.81;4974889;28;19913;-84
2021/03/22 03:42:58;;;;;;;19.73;11.73;;;;;;;4.77;55.96;71077.09;4975062;28;20033;-85
2021/03/22 03:45:28;;;;;;;18.23;11.60;;;;;;;6.73;55.89;71300.81;4980367;28;20041;-85
2021/03/22 03:47:54;;;;;;;21.92;11.40;;;;;;;6.50;55.82;71274.69;4954831;28;20061;-85
2021/03/22 03:50:26;;;;;;;23.58;12.90;;;;;;;6.47;58.16;71271.72;4955062;28;20089;-86
2021/03/22 03:52:54;;;;;;;20.42;11.45;;;;;;;6.79;57.20;71305.22;4954702;28;20038;-86
2021/03/22 03:55:23;;;;;;;32.33;13.13;;;;;;;6.22;55.69;71237.78;4954837;28;20089;-86
2021/03/22 03:57:53;;;;;;;23.83;11.30;;;;;;;6.61;54.95;71287.78;4955015;28;20391;-87
2021/03/22 04:00:36;;;;;;;18.33;11.90;;;;;;;5.89;56.52;71205.81;4954948;28;20100;-85
2021/03/22 04:03:33;;;;;;;29.77;12.25;;;;;;;6.47;54.53;71271.16;4954748;28;20031;-85
2021/03/22 04:06:15;;;;;;;20.67;11.93;;;;;;;6.50;56.86;71274.69;4953941;28;20034;-83
2021/03/22 04:08:44;;;;;;;27.95;13.57;;;;;;;6.60;57.14;71281.09;4954992;28;20427;-85
2021/03/22 04:11:14;;;;;;;17.47;12.03;;;;;;;6.73;56.58;71298.09;4955228;28;20502;-84
2021/03/22 04:13:41;;;;;;;26.20;13.57;;;;;;;6.03;59.00;71221.28;4976112;28;20050;-85
2021/03/22 04:16:11;;;;;;;29.27;14.65;;;;;;;6.55;58.08;71278.50;4992319;28;20128;-85
2021/03/22 04:18:39;;;;;;;26.30;13.48;;;;;;;6.75;57.68;71303.81;4978287;28;20037;-84
2021/03/22 04:21:09;;;;;;;22.75;12.63;;;;;;;6.93;56.34;71324.00;4966341;28;20041;-84
2021/03/22 04:23:36;;;;;;;26.67;12.60;;;;;;;6.67;57.98;71294.88;4958415;28;20027;-84
2021/03/22 04:26:05;;;;;;;24.50;13.60;;;;;;;6.27;58.36;71245.84;4974491;28;20289;-86
2021/03/22 04:28:33;;;;;;;29.75;13.88;;;;;;;5.68;57.29;71180.88;4958813;28;20066;-86
2021/03/22 04:31:02;;;;;;;29.92;15.30;;;;;;;6.63;58.72;71287.41;4958326;28;20037;-85
2021/03/22 04:33:29;;;;;;;21.75;13.45;;;;;;;6.47;58.69;71269.00;4958233;28;20043;-86
2021/03/22 04:35:56;;;;;;;26.90;13.93;;;;;;;5.80;59.36;71192.41;4958225;28;20046;-84
2021/03/22 04:38:23;;;;;;;23.60;13.82;;;;;;;5.43;60.04;71153.03;4958042;28;20420;-85
2021/03/22 04:40:50;;;;;;;29.48;13.95;;;;;;;6.21;58.79;71238.72;4958503;28;20055;-85
2021/03/22 04:43:18;;;;;;;26.27;15.40;;;;;;;5.72;59.69;71186.22;4976686;28;20019;-85
2021/03/22 04:45:45;;;;;;;30.83;15.18;;;;;;;6.15;59.05;71232.19;4974795;28;20145;-86
2021/03/22 04:48:13;;;;;;;25.42;14.25;;;;;;;5.61;59.12;71168.31;4958366;28;20130;-84
2021/03/22 04:50:40;;;;;;;23.50;13.82;;;;;;;5.25;60.33;71126.81;4958452;28;20030;-88
2021/03/22 04:53:08;;;;;;;37.53;16.58;;;;;;;6.04;60.58;71221.88;4974175;28;20033;-86
2021/03/22 04:55:35;;;;;;;30.00;16.77;;;;;;;5.88;61.21;71204.63;4957956;28;20475;-87
2021/03/22 04:58:02;;;;;;;31.27;16.10;;;;;;;5.45;62.08;71154.78;4958793;28;20037;-86
2021/03/22 05:00:32;;;;;;;30.80;13.52;;;;;;;5.77;62.16;71191.59;4974426;28;20019;-86
2021/03/22 05:02:59;;;;;;;33.15;15.63;;;;;;;4.89;62.63;71090.72;4957896;28;20438;-87
2021/03/22 05:05:27;;;;;;;33.08;16.63;;;;;;;5.96;62.76;71212.94;4958456;28;20045;-85
2021/03/22 05:07:55;;;;;;;27.67;15.68;;;;;;;6.48;63.47;71266.88;4957902;28;20019;-87
2021/03/22 05:10:29;;;;;;;27.42;14.73;;;;;;;6.17;63.44;71237.28;4958114;28;20042;-85
2021/03/22 05:12:56;;;;;;;27.20;17.02;;;;;;;5.75;63.96;71189.81;4957746;28;20503;-86
2021/03/22 05:15:24;;;;;;;36.42;16.08;;;;;;;6.83;63.02;71312.69;4976119;28;20065;-86
2021/03/22 05:17:51;;;;;;;30.70;15.73;;;;;;;6.76;63.17;71304.41;4957541;28;20097;-85
2021/03/22 05:20:33;;;;;;;31.38;15.05;;;;;;;7.00;63.11;71326.25;4974477;28;20026;-84
2021/03/22 05:23:01;;;;;;;32.25;15.80;;;;;;;6.05;63.96;71220.91;4975747;28;20034;-86
2021/03/22 05:25:28;;;;;;;31.33;15.60;;;;;;;6.85;63.84;71315.09;4994246;28;20036;-86
2021/03/22 05:27:55;;;;;;;34.15;15.90;;;;;;;6.62;63.06;71286.22;4977056;28;20032;-86
2021/03/22 05:30:22;;;;;;;32.85;16.38;;;;;;;5.30;65.40;71138.16;4994254;28;20022;-86
2021/03/22 05:32:49;;;;;;;31.90;17.58;;;;;;;5.79;65.99;71199.41;4976566;28;20097;-86
2021/03/22 05:35:21;;;;;;;34.00;16.73;;;;;;;6.77;64.54;71305.59;4976299;28;20390;-87
2021/03/22 05:37:48;;;;;;;36.50;15.85;;;;;;;5.83;65.63;71198.69;4976721;28;20084;-86
2021/03/22 05:40:41;;;;;;;34.20;15.95;;;;;;;6.88;65.84;71318.06;4976654;28;20039;-86
2021/03/22 05:43:17;;;;;;;28.05;14.18;;;;;;;6.91;67.02;71319.50;4983511;28;20111;-87
2021/03/22 05:45:50;;;;;;;36.45;15.00;;;;;;;6.91;67.75;71319.50;4972129;28;20557;-86
2021/03/22 05:48:30;;;;;;;33.78;14.70;;;;;;;5.61;68.16;71173.19;4993739;28;20093;-86
2021/03/22 05:51:21;;;;;;;34.78;14.75;;;;;;;6.25;70.07;71246.78;4973752;28;20431;-87
2021/03/22 05:53:59;;;;;;;33.60;13.80;;;;;;;5.29;70.76;71136.41;4973193;28;20058;-87
2021/03/22 05:56:33;;;;;;;30.33;15.38;;;;;;;5.81;69.85;71196.31;4976247;28;20031;-84
2021/03/22 05:59:15;;;;;;;32.65;15.65;;;;;;;6.47;69.91;71271.16;4993661;28;20394;-85
2021/03/22 06:01:54;;;;;;;35.40;14.20;;;;;;;5.24;66.40;71131.06;4972684;28;20088;-85
2021/03/22 06:04:38;;;;;;;28.70;13.70;;;;;;;6.50;65.60;71274.69;4975922;28;20034;-87
2021/03/22 06:07:06;;;;;;;20.58;13.23;;;;;;;6.40;66.09;71264.00;4976013;28;20035;-86
2021/03/22 06:09:58;;;;;;;32.97;15.30;;;;;;;6.01;67.19;71214.00;4993468;28;20096;-87
2021/03/22 06:12:43;;;;;;;43.65;14.27;;;;;;;6.35;69.52;71257.50;4970048;28;20034;-87
2021/03/22 06:15:57;;;;;;;37.97;12.70;;;;;;;6.54;69.09;71280.03;4969412;28;20037;-86
2021/03/22 06:18:56;;;;;;;37.80;14.23;;;;;;;5.73;70.07;71186.81;4950876;28;20060;-87
2021/03/22 06:21:26;;;;;;;30.63;12.00;;;;;;;5.45;70.30;71155.38;4956699;28;20042;-85
2021/03/22 06:23:53;;;;;;;37.70;13.57;;;;;;;5.40;70.32;71149.44;4974231;28;20019;-85
2021/03/22 06:26:19;;;;;;;45.67;13.02;;;;;;;6.36;70.03;71258.69;4972755;28;20038;-87
2021/03/22 06:28:53;;;;;;;61.35;17.05;;;;;;;6.26;70.95;71247.38;4973990;28;20026;-86
2021/03/22 06:31:22;;;;;;;34.10;13.05;;;;;;;6.32;70.64;71254.53;4956469;28;20043;-85
2021/03/22 06:34:04;;;;;;;39.85;15.50;;;;;;;4.71;70.03;71069.97;4972070;28;20050;-85
2021/03/22 06:36:31;;;;;;;32.75;15.00;;;;;;;6.50;69.65;71272.56;4956307;28;20062;-85
2021/03/22 06:39:01;;;;;;;37.45;13.05;;;;;;;6.88;69.53;71318.66;4973001;28;20046;-85
2021/03/22 06:41:52;;;;;;;33.20;13.85;;;;;;;6.09;72.15;71228.41;4956098;28;20026;-86
2021/03/22 06:44:40;;;;;;;28.75;13.82;;;;;;;5.69;72.70;71182.06;4960471;28;20041;-86
2021/03/22 06:47:19;;;;;;;39.65;14.68;;;;;;;4.36;71.82;71030.84;4979318;28;20057;-85
2021/03/22 06:49:49;;;;;;;25.38;13.90;;;;;;;6.46;72.95;71270.53;4977110;28;20387;-85
2021/03/22 06:52:22;;;;;;;48.58;15.57;;;;;;;6.53;73.78;71275.53;4974438;28;20038;-86
2021/03/22 06:54:53;;;;;;;43.83;14.90;;;;;;;6.69;73.38;71297.28;4936427;29;20392;-84
2021/03/22 06:57:21;;;;;;;30.60;13.25;;;;;;;6.37;73.85;71254.97;4953484;29;20027;-86
2021/03/22 07:00:13;;;;;;;38.60;14.68;;;;;;;6.65;74.06;71292.50;4968207;28;20035;-86
2021/03/22 07:02:43;;;;;;;48.63;17.90;;;;;;;6.57;74.41;71283.00;4936601;29;20031;-85
2021/03/22 07:05:28;;;;;;;34.55;17.30;;;;;;;5.86;74.88;71198.94;4936657;29;20027;-87
2021/03/22 07:08:04;;;;;;;56.28;17.50;;;;;;;6.35;76.56;71258.06;4936644;29;20118;-86
2021/03/22 07:10:43;;;;;;;45.60;18.15;;;;;;;5.66;76.29;71179.13;4936288;29;20046;-86
2021/03/22 07:13:27;;;;;;;52.08;18.75;;;;;;;5.54;77.04;71164.88;4936448;29;20535;-86
2021/03/22 07:16:20;;;;;;;50.70;17.48;;;;;;;5.67;76.97;71177.59;4964986;28;20061;-87
2021/03/22 07:19:16;;;;;;;37.40;16.15;;;;;;;6.29;77.02;71251.53;4988040;28;20022;-86
2021/03/22 07:21:56;;;;;;;44.45;18.35;;;;;;;6.19;77.10;71239.69;4977103;28;20670;-86
2021/03/22 07:24:40;;;;;;;31.27;15.55;;;;;;;5.58;76.05;71170.22;4958283;28;20034;-84
2021/03/22 07:27:13;;;;;;;42.30;17.00;;;;;;;6.67;75.22;71294.88;4955595;28;20031;-86
2021/03/22 07:29:48;;;;;;;30.90;15.68;;;;;;;6.62;75.92;71288.97;4972740;28;20030;-86
2021/03/22 07:32:33;;;;;;;34.05;15.15;;;;;;;6.70;75.31;71295.72;4954994;28;20059;-86
2021/03/22 07:35:15;;;;;;;47.08;17.65;;;;;;;6.63;75.79;71287.41;4955308;28;20054;-86
2021/03/22 07:37:58;;;;;;;45.15;17.48;;;;;;;6.59;76.79;71279.91;4955366;28;20035;-86
2021/03/22 07:40:37;;;;;;;34.50;15.65;;;;;;;6.22;76.68;71242.63;4955271;28;20475;-84
2021/03/22 07:43:41;;;;;;;35.33;17.05;;;;;;;6.46;76.41;71265.09;4972522;28;20475;-86
2021/03/22 07:46:52;;;;;;;44.17;18.45;;;;;;;6.39;75.76;71257.38;4922328;28;20042;-84
2021/03/22 07:49:55;;;;;;;52.40;19.67;;;;;;;6.95;74.91;71321.50;4974069;28;20022;-85
2021/03/22 07:52:28;;;;;;;41.05;16.20;;;;;;;6.74;74.96;71302.00;4970785;28;20031;-84
2021/03/22 07:55:21;;;;;;;44.15;15.93;;;;;;;6.32;73.42;71251.78;4970808;28;20391;-86
2021/03/22 07:57:59;;;;;;;42.42;18.23;;;;;;;6.71;74.33;71296.31;4987307;28;20030;-86
2021/03/22 08:00:44;;;;;;;35.65;17.00;;;;;;;6.46;74.98;71269.97;4971050;28;20085;-86
2021/03/22 08:03:23;;;;;;;41.83;16.60;;;;;;;6.15;75.99;71235.53;4990608;28;20039;-87
2021/03/22 08:06:09;;;;;;;50.83;19.48;;;;;;;6.26;76.26;71247.38;4971252;28;20030;-85
2021/03/22 08:08:51;;;;;;;42.50;18.77;;;;;;;6.16;76.38;71233.97;4971000;28;20077;-85
2021/03/22 08:11:39;;;;;;;52.10;16.90;;;;;;;5.83;75.92;71195.38;4973947;28;20087;-87
2021/03/22 08:14:29;;;;;;;77.88;21.15;;;;;;;6.19;76.20;71236.94;4987792;28;20027;-86
2021/03/22 08:17:08;;;;;;;41.10;18.23;;;;;;;6.29;75.60;71248.22;4954976;28;20031;-86
2021/03/22 08:20:01;;;;;;;43.58;19.00;;;;;;;6.31;74.20;71253.34;4954996;28;20027;-84
2021/03/22 08:22:41;;;;;;;33.80;15.98;;;;;;;6.38;73.66;71261.66;4954605;28;20541;-84
2021/03/22 08:25:07;;;;;;;;;;;;;;;6.47;73.63;71268.41;4955354;28;20042;-84
2021/03/22 08:27:38;;;;;;;46.13;19.08;;;;;;;6.40;74.65;71264.00;4973535;28;20378;-83
2021/03/22 08:30:22;;;;;;;45.05;21.40;;;;;;;6.39;73.91;71262.84;4975341;28;20057;-84
2021/03/22 08:33:01;;;;;;;33.90;19.88;;;;;;;6.29;75.09;71248.81;4959539;28;20046;-83
2021/03/22 08:35:37;;;;;;;43.58;20.33;;;;;;;6.42;74.05;71266.38;4958158;28;20043;-85
2021/03/22 08:38:35;;;;;;;47.22;22.63;;;;;;;5.70;74.84;71181.13;4956840;28;20027;-86
2021/03/22 08:41:02;;;;;;;44.20;21.70;;;;;;;5.63;74.70;71172.25;4956891;28;20419;-82
2021/03/22 08:43:35;;;;;;;42.58;21.02;;;;;;;6.39;74.55;71262.84;4955938;28;20391;-86
2021/03/22 08:46:24;;;;;;;58.15;22.73;;;;;;;5.80;75.25;71195.13;4971279;28;20030;-85
2021/03/22 08:48:51;;;;;;;51.83;22.50;;;;;;;5.21;74.58;71124.78;4993339;28;20038;-85
2021/03/22 08:51:32;;;;;;;51.20;25.25;;;;;;;6.36;74.65;71259.25;4975971;28;20030;-84
2021/03/22 08:53:59;;;;;;;45.28;23.70;;;;;;;5.18;75.24;71121.22;4976209;28;20031;-86
2021/03/22 08:56:45;;;;;;;51.25;24.33;;;;;;;5.85;75.15;71201.09;4955840;28;20035;-87
2021/03/22 08:59:20;;;;;;;60.97;25.80;;;;;;;5.41;76.02;71150.06;4971365;28;20691;-86
2021/03/22 09:01:47;;;;;;;43.17;23.13;;;;;;;5.71;76.49;71184.47;4961478;28;20035;-84
2021/03/22 09:04:34;;;;;;;46.03;24.05;;;;;;;6.12;76.43;71229.22;4977359;28;20073;-84
2021/03/22 09:07:20;;;;;;;48.20;23.65;;;;;;;5.51;76.24;71161.91;4975458;28;20066;-84
2021/03/22 09:09:49;;;;;;;53.20;23.80;;;;;;;6.06;76.33;71219.38;4958752;28;20027;-86
2021/03/22 09:12:44;;;;;;;52.25;26.02;;;;;;;6.33;75.75;71255.69;4975172;28;20046;-86
2021/03/22 09:15:20;;;;;;;62.58;23.20;;;;;;;5.27;76.45;71134.03;4957169;28;20427;-84
2021/03/22 09:17:50;;;;;;;55.35;26.48;;;;;;;6.14;75.77;71231.59;4957822;28;20063;-85
2021/03/22 09:20:33;;;;;;;47.88;24.70;;;;;;;6.04;75.47;71222.47;4957599;28;20033;-85
2021/03/22 09:23:02;;;;;;;49.78;25.00;;;;;;;4.88;75.61;71090.13;4956848;28;20119;-84
2021/03/22 09:26:06;;;;;;;59.17;27.90;;;;;;;5.78;74.47;71192.16;4957271;28;20121;-83
2021/03/22 09:28:40;;;;;;;58.55;22.38;;;;;;;6.18;74.59;71237.91;4880637;29;20032;-84
2021/03/22 09:31:15;;;;;;;51.83;23.65;;;;;;;6.11;74.61;71222.59;4963241;28;20046;-83
2021/03/22 09:34:00;;;;;;;52.45;25.90;;;;;;;5.97;75.73;71211.41;4957514;28;20065;-85
2021/03/22 09:36:41;;;;;;;54.20;23.98;;;;;;;6.10;75.01;71228.97;4957645;28;20093;-84
2021/03/22 09:39:14;;;;;;;51.65;23.90;;;;;;;6.01;75.96;71218.88;4959226;28;20027;-86
2021/03/22 09:41:53;;;;;;;48.42;25.45;;;;;;;6.01;76.38;71218.88;4958999;28;20030;-85
2021/03/22 09:44:27;;;;;;;48.53;26.33;;;;;;;6.00;76.63;71217.69;4974488;28;20038;-86
2021/03/22 09:47:19;;;;;;;47.60;24.08;;;;;;;6.13;76.82;71233.13;4957389;28;20030;-84
2021/03/22 09:50:19;;;;;;;54.72;25.42;;;;;;;5.99;77.61;71217.09;4966853;28;20450;-83
2021/03/22 09:52:55;;;;;;;54.63;26.42;;;;;;;5.81;78.27;71195.72;4957680;28;20027;-83
2021/03/22 09:55:28;;;;;;;45.80;26.38;;;;;;;5.51;79.83;71161.31;4958538;28;20030;-86
2021/03/22 09:58:16;;;;;;;73.03;28.67;;;;;;;4.78;79.82;71078.28;4957336;28;20027;-85
2021/03/22 10:00:42;;;;;;;57.65;24.02;;;;;;;5.82;79.32;71196.94;4974273;28;20038;-85
2021/03/22 10:03:27;;;;;;;62.95;28.48;;;;;;;5.52;80.35;71163.09;4974117;28;20041;-86
2021/03/22 10:05:55;;;;;;;56.35;28.40;;;;;;;5.63;80.14;71174.97;4956784;28;20027;-84
2021/03/22 10:08:36;;;;;;;75.45;28.13;;;;;;;4.76;80.15;71076.50;4974396;28;20018;-84
2021/03/22 10:11:19;;;;;;;69.82;27.55;;;;;;;5.55;80.84;71163.94;4956421;28;20027;-85
2021/03/22 10:13:48;;;;;;;55.92;29.50;;;;;;;5.38;81.66;71147.06;4956331;28;20078;-86
2021/03/22 10:16:38;;;;;;;58.38;27.02;;;;;;;5.48;81.54;71155.63;4936501;29;20042;-85
2021/03/22 10:19:15;;;;;;;51.57;27.80;;;;;;;5.52;80.78;71163.09;4954575;29;20079;-86
2021/03/22 10:21:55;;;;;;;55.10;28.00;;;;;;;5.02;81.95;71106.16;4937712;29;20396;-86
2021/03/22 10:24:40;;;;;;;;;;;;;;;5.53;81.84;71164.28;4955043;28;20093;-85
2021/03/22 10:27:25;;;;;;;73.60;28.85;;;;;;;5.56;81.60;71165.13;4973471;28;19917;-87
2021/03/22 10:30:03;;;;;;;72.18;28.85;;;;;;;4.16;81.48;71007.72;4955941;28;20027;-85
2021/03/22 10:32:30;;;;;;;63.92;28.92;;;;;;;4.42;81.72;71037.38;4972999;28;20059;-85
2021/03/22 10:35:19;;;;;;;62.70;29.45;;;;;;;5.57;81.73;71169.03;4974071;28;20033;-85
2021/03/22 10:37:51;;;;;;;70.35;27.40;;;;;;;5.54;81.82;71165.47;4973279;28;20483;-83
2021/03/22 10:40:39;;;;;;;61.15;29.08;;;;;;;5.04;81.40;71108.53;4973174;28;20065;-84
2021/03/22 10:43:21;;;;;;;56.88;28.27;;;;;;;5.55;81.68;71166.66;4973218;28;20027;-85
2021/03/22 10:45:48;;;;;;;59.78;28.88;;;;;;;4.61;81.39;71056.00;4958103;28;20038;-84
2021/03/22 10:48:26;;;;;;;50.88;26.10;;;;;;;5.12;81.85;71111.38;4955310;28;20030;-86
2021/03/22 10:51:18;;;;;;;52.35;25.55;;;;;;;4.61;82.07;71053.88;4956002;28;20594;-84
2021/03/22 10:54:08;;;;;;;78.00;30.30;;;;;;;4.77;82.21;71077.69;4972791;28;20066;-85
2021/03/22 10:56:59;;;;;;;62.22;28.88;;;;;;;5.38;81.89;71146.47;4955643;28;20054;-85
2021/03/22 10:59:36;;;;;;;66.72;25.33;;;;;;;5.09;82.86;71113.25;4955561;28;20038;-85
2021/03/22 11:02:26;;;;;;;53.78;25.00;;;;;;;4.74;82.05;71074.13;4957768;28;20039;-85
2021/03/22 11:04:55;;;;;;;60.97;27.33;;;;;;;4.94;81.90;71096.66;4961383;28;20030;-84
2021/03/22 11:07:25;;;;;;;64.05;25.25;;;;;;;5.42;82.02;71151.22;4978420;28;20282;-86
2021/03/22 11:10:00;;;;;;;58.17;24.13;;;;;;;5.51;81.96;71159.19;4972908;28;20396;-83
2021/03/22 11:12:29;;;;;;;57.42;25.05;;;;;;;4.31;82.10;71024.31;4973805;28;20098;-84
2021/03/22 11:15:03;;;;;;;54.47;24.92;;;;;;;5.48;81.84;71158.34;4960742;28;20027;-84
2021/03/22 11:17:30;;;;;;;68.75;26.25;;;;;;;4.58;82.21;71052.44;4975694;28;20034;-85
2021/03/22 11:20:05;;;;;;;64.63;26.25;;;;;;;4.56;82.63;71053.38;4975056;28;20026;-85
2021/03/22 11:22:40;;;;;;;57.67;28.50;;;;;;;4.70;82.98;71063.94;4973751;28;20110;-84
2021/03/22 11:25:33;;;;;;;57.17;25.02;;;;;;;5.28;83.10;71132.50;4935894;29;20413;-84
2021/03/22 11:28:05;;;;;;;58.47;25.42;;;;;;;3.80;83.70;70966.28;4953263;29;20472;-83
2021/03/22 11:30:43;;;;;;;63.50;25.80;;;;;;;5.45;82.51;71154.78;4953326;29;20156;-84
2021/03/22 11:33:17;;;;;;;66.18;28.08;;;;;;;5.29;83.26;71137.00;4951470;29;20048;-85
2021/03/22 11:35:46;;;;;;;55.70;22.05;;;;;;;4.83;82.61;71080.88;4952984;29;20027;-85
2021/03/22 11:38:26;;;;;;;61.40;26.35;;;;;;;4.76;83.34;71076.50;4952972;29;20054;-85
2021/03/22 11:40:56;;;;;;;59.53;25.58;;;;;;;4.63;82.84;71061.06;4952945;29;20035;-86
2021/03/22 11:43:28;;;;;;;55.83;24.27;;;;;;;5.43;82.10;71152.41;4967551;28;20075;-85
2021/03/22 11:46:11;;;;;;;57.10;26.02;;;;;;;5.31;82.64;71139.38;4975484;28;20038;-84
2021/03/22 11:48:40;;;;;;;66.45;25.85;;;;;;;5.35;82.03;71140.78;4989801;28;20023;-84
2021/03/22 11:51:10;;;;;;;50.17;24.48;;;;;;;4.46;81.85;71036.66;4974214;28;20112;-85
2021/03/22 11:54:05;;;;;;;56.10;26.05;;;;;;;5.42;81.73;71151.81;4973596;28;20026;-85
2021/03/22 11:56:37;;;;;;;74.20;29.08;;;;;;;4.56;81.29;71052.78;4991333;28;20069;-86
2021/03/22 11:59:20;;;;;;;61.55;25.52;;;;;;;5.10;80.78;71112.31;4973866;28;20026;-88
2021/03/22 12:02:16;;;;;;;58.40;25.20;;;;;;;5.39;80.69;71147.66;4991109;28;20122;-85
2021/03/22 12:05:08;;;;;;;58.63;23.73;;;;;;;4.79;80.02;71080.06;4991487;28;20037;-86